Hoard, Wisconsin
Current Conditions -  °F | °C
As of 7:14 PM on Tuesday 27 Jan 2015 (Local Time) from KMDZ Reporting Station
Overcast Overcast  
Wind Chill: 23°   Ceiling: 1200
Heat Index: 23°   Visibility: 7mi
Dew Point: 19°   Wind: 3mph
Humidity: 86%   Direction: 150°SSE
Pressure: 30.16"   Gusts: NA
Location:  44.9591°N, 90.4659°W
Report Text: KMDZ 280114Z AUTO 15003KT 7SM OVC012 M05/M07 A3016 RMK AO2
Loading
Personal Weather Stations






























Interactive Weather Map New forecast layout! Learn more

10-Day Weather Forecast

Advertisements
Track Severe Weather on mobile